createdAt,value
2018-01-06T00:00:18.016Z,86.40
2018-01-06T00:02:45.481Z,86.00
2018-01-06T00:05:12.967Z,85.80
2018-01-06T00:07:40.412Z,86.10
2018-01-06T00:10:07.849Z,85.80
2018-01-06T00:12:35.283Z,85.20
2018-01-06T00:15:02.747Z,85.30
2018-01-06T00:17:30.193Z,85.50
2018-01-06T00:19:57.649Z,85.20
2018-01-06T00:22:25.108Z,84.90
2018-01-06T00:24:52.548Z,84.90
2018-01-06T00:27:20.761Z,84.70
2018-01-06T00:29:48.234Z,84.60
2018-01-06T00:32:15.664Z,84.90
2018-01-06T00:34:43.119Z,85.60
2018-01-06T00:37:10.562Z,85.40
2018-01-06T00:39:38.007Z,85.20
2018-01-06T00:42:06.221Z,85.50
2018-01-06T00:44:33.677Z,85.50
2018-01-06T00:47:01.114Z,85.60
2018-01-06T00:49:28.555Z,85.50
2018-01-06T00:51:56.831Z,86.40
2018-01-06T00:54:25.050Z,85.40
2018-01-06T00:56:52.501Z,85.30
2018-01-06T00:59:19.924Z,84.70
2018-01-06T01:01:48.136Z,85.40
2018-01-06T01:04:15.580Z,85.20
2018-01-06T01:06:43.009Z,84.50
2018-01-06T01:09:10.458Z,84.10
2018-01-06T01:11:37.898Z,84.50
2018-01-06T01:14:05.339Z,84.70
2018-01-06T01:16:32.784Z,83.90
2018-01-06T01:19:00.231Z,84.50
2018-01-06T01:21:27.677Z,85.30
2018-01-06T01:23:55.421Z,86.00
2018-01-06T01:26:23.662Z,86.10
2018-01-06T01:28:51.123Z,86.10
2018-01-06T01:31:18.580Z,86.50
2018-01-06T01:33:46.050Z,86.70
2018-01-06T01:36:13.916Z,86.60
2018-01-06T01:38:42.128Z,86.60
2018-01-06T01:41:09.581Z,87.00
2018-01-06T01:43:38.251Z,86.80
2018-01-06T01:46:05.706Z,87.30
2018-01-06T01:48:33.161Z,86.00
2018-01-06T01:51:00.605Z,86.10
2018-01-06T01:53:28.065Z,85.80
2018-01-06T01:55:55.510Z,85.50
2018-01-06T01:58:22.973Z,85.40
2018-01-06T02:00:50.420Z,85.20
2018-01-06T02:03:17.869Z,85.90
2018-01-06T02:05:45.360Z,86.30
2018-01-06T02:08:12.841Z,86.10
2018-01-06T02:10:40.299Z,86.80
2018-01-06T02:13:07.991Z,86.30
2018-01-06T02:15:35.432Z,86.70
2018-01-06T02:18:02.894Z,86.60
2018-01-06T02:20:30.333Z,86.40
2018-01-06T02:22:57.784Z,86.30
2018-01-06T02:25:25.220Z,86.60
2018-01-06T02:27:53.424Z,86.50
2018-01-06T02:30:20.874Z,86.50
2018-01-06T02:32:48.305Z,86.20
2018-01-06T02:35:15.761Z,86.40
2018-01-06T02:37:43.212Z,86.60
2018-01-06T02:40:10.685Z,86.20
2018-01-06T02:42:38.126Z,86.30
2018-01-06T02:45:05.584Z,86.30
2018-01-06T02:47:33.044Z,86.60
2018-01-06T02:50:00.517Z,86.80
2018-01-06T02:52:27.980Z,86.90
2018-01-06T02:54:55.421Z,85.90
2018-01-06T02:57:22.922Z,86.00
2018-01-06T02:59:50.372Z,86.00
2018-01-06T03:02:17.794Z,85.00
2018-01-06T03:04:45.257Z,85.90
2018-01-06T03:07:12.709Z,85.30
2018-01-06T03:09:40.163Z,84.60
2018-01-06T03:12:07.678Z,84.70
2018-01-06T03:14:35.084Z,84.70
2018-01-06T03:17:02.539Z,85.00
2018-01-06T03:19:30.751Z,85.90
2018-01-06T03:21:58.213Z,85.90
2018-01-06T03:24:25.672Z,86.50
2018-01-06T03:26:53.123Z,87.40
2018-01-06T03:29:20.548Z,87.80
2018-01-06T03:31:48.018Z,88.30
2018-01-06T03:34:15.681Z,88.60
2018-01-06T03:36:43.119Z,88.60
2018-01-06T03:39:10.559Z,89.10
2018-01-06T03:41:38.016Z,89.20
2018-01-06T03:44:05.478Z,89.30
2018-01-06T03:46:32.919Z,89.30
2018-01-06T03:49:00.416Z,89.30
2018-01-06T03:51:27.876Z,89.50
2018-01-06T03:53:55.305Z,89.60
2018-01-06T03:56:23.709Z,90.00
2018-01-06T03:58:51.138Z,89.90
2018-01-06T04:01:18.591Z,89.70
2018-01-06T04:03:46.048Z,89.70
2018-01-06T04:06:13.497Z,89.60
2018-01-06T04:08:40.955Z,89.30
2018-01-06T04:11:08.402Z,89.60
2018-01-06T04:20:19.033Z,89.30
2018-01-06T04:22:46.489Z,87.90
2018-01-06T04:25:13.928Z,88.00
2018-01-06T04:27:41.364Z,88.10
2018-01-06T04:30:08.824Z,88.10
2018-01-06T04:32:36.295Z,87.10
2018-01-06T04:35:03.754Z,86.20
2018-01-06T04:37:31.220Z,85.70
2018-01-06T04:39:58.668Z,85.00
2018-01-06T04:42:26.104Z,85.00
2018-01-06T04:44:53.563Z,85.30
2018-01-06T04:47:21.016Z,85.40
2018-01-06T04:49:48.450Z,86.00
2018-01-06T04:52:15.900Z,86.10
2018-01-06T04:54:43.342Z,85.50
2018-01-06T04:57:10.786Z,85.30
2018-01-06T04:59:38.274Z,85.70
2018-01-06T05:02:05.712Z,85.00
2018-01-06T05:04:33.160Z,84.50
2018-01-06T05:07:00.624Z,84.60
2018-01-06T05:09:28.851Z,84.60
2018-01-06T05:11:56.326Z,84.40
2018-01-06T05:14:23.784Z,84.50
2018-01-06T05:16:51.274Z,85.00
2018-01-06T05:19:19.480Z,86.00
2018-01-06T05:21:46.977Z,85.80
2018-01-06T05:24:14.436Z,86.20
2018-01-06T05:26:41.896Z,86.40
2018-01-06T05:29:09.344Z,86.70
2018-01-06T05:31:36.819Z,86.60
2018-01-06T05:34:04.273Z,86.40
2018-01-06T05:36:31.745Z,86.60
2018-01-06T05:38:59.192Z,86.80
2018-01-06T05:41:26.641Z,86.90
2018-01-06T05:43:54.102Z,86.40
2018-01-06T05:46:21.568Z,86.30
2018-01-06T05:48:49.028Z,85.90
2018-01-06T05:51:16.501Z,85.20
2018-01-06T05:53:44.727Z,84.40
2018-01-06T05:56:12.204Z,84.40
2018-01-06T05:58:39.648Z,84.30
2018-01-06T06:01:07.111Z,84.90
2018-01-06T06:03:34.577Z,85.10
2018-01-06T06:06:02.068Z,85.30
2018-01-06T06:08:29.520Z,85.30
2018-01-06T06:10:57.742Z,84.10
2018-01-06T06:13:25.160Z,84.00
2018-01-06T06:15:52.600Z,84.20
2018-01-06T06:18:20.046Z,84.00
2018-01-06T06:20:47.503Z,84.30
2018-01-06T06:23:14.973Z,85.10
2018-01-06T06:25:43.198Z,84.90
2018-01-06T06:28:10.729Z,84.90
2018-01-06T06:30:38.171Z,84.40
2018-01-06T06:33:05.633Z,84.10
2018-01-06T06:35:33.094Z,84.00
2018-01-06T06:38:00.543Z,84.20
2018-01-06T06:40:27.976Z,84.70
2018-01-06T06:42:55.442Z,84.10
2018-01-06T06:45:22.884Z,84.10
2018-01-06T06:47:50.340Z,84.40
2018-01-06T06:50:17.840Z,84.40
2018-01-06T06:52:45.280Z,85.00
2018-01-06T06:55:13.513Z,85.70
2018-01-06T06:57:40.969Z,85.60
2018-01-06T07:00:08.441Z,85.50
2018-01-06T07:02:35.902Z,85.80
2018-01-06T07:05:03.366Z,85.20
2018-01-06T07:07:30.826Z,86.10
2018-01-06T07:09:58.273Z,85.60
2018-01-06T07:12:25.881Z,84.70
2018-01-06T07:14:53.316Z,84.50
2018-01-06T07:17:20.765Z,83.80
2018-01-06T07:19:48.203Z,83.30
2018-01-06T07:22:15.681Z,83.50
2018-01-06T07:24:43.121Z,83.80
2018-01-06T07:27:10.567Z,83.40
2018-01-06T07:29:38.037Z,83.80
2018-01-06T07:32:05.484Z,83.80
2018-01-06T07:34:33.000Z,82.90
2018-01-06T07:37:00.440Z,82.30
2018-01-06T07:39:27.880Z,82.10
2018-01-06T07:41:55.341Z,82.30
2018-01-06T07:44:22.780Z,82.20
2018-01-06T07:46:50.228Z,82.60
2018-01-06T07:49:17.668Z,83.10
2018-01-06T07:51:45.134Z,82.60
2018-01-06T07:54:12.578Z,82.30
2018-01-06T07:56:40.109Z,81.90
2018-01-06T07:59:07.556Z,81.70
2018-01-06T08:01:35.004Z,82.10
2018-01-06T08:04:02.430Z,81.10
2018-01-06T08:06:29.865Z,81.10
2018-01-06T08:08:57.326Z,81.30
2018-01-06T08:11:24.793Z,81.00
2018-01-06T08:13:52.239Z,81.00
2018-01-06T08:16:19.698Z,80.80
2018-01-06T08:18:47.533Z,81.10
2018-01-06T08:21:15.016Z,81.00
2018-01-06T08:23:42.468Z,81.20
2018-01-06T08:26:09.935Z,81.10
2018-01-06T08:28:37.390Z,80.90
2018-01-06T08:31:04.856Z,80.00
2018-01-06T08:33:32.337Z,80.60
2018-01-06T08:35:59.784Z,80.20
2018-01-06T08:38:27.214Z,80.40
2018-01-06T08:40:54.669Z,80.30
2018-01-06T08:43:22.134Z,80.20
2018-01-06T08:45:49.592Z,80.50
2018-01-06T08:48:17.053Z,80.30
2018-01-06T08:50:44.519Z,80.30
2018-01-06T08:53:11.980Z,80.50
2018-01-06T08:55:39.436Z,80.80
2018-01-06T08:58:06.881Z,80.70
2018-01-06T09:00:34.349Z,80.90
2018-01-06T09:03:01.805Z,80.90
2018-01-06T09:05:29.321Z,81.20
2018-01-06T09:07:56.721Z,81.40
2018-01-06T09:10:24.181Z,81.60
2018-01-06T09:12:51.705Z,82.10
2018-01-06T09:15:19.168Z,82.00
2018-01-06T09:17:46.621Z,82.00
2018-01-06T09:20:14.100Z,81.90
2018-01-06T09:22:41.554Z,81.80
2018-01-06T09:25:10.737Z,82.20
2018-01-06T09:27:38.200Z,82.20
2018-01-06T09:30:05.682Z,82.90
2018-01-06T09:32:33.145Z,82.70
2018-01-06T09:35:00.621Z,82.50
2018-01-06T09:37:28.865Z,82.80
2018-01-06T09:39:56.318Z,82.70
2018-01-06T09:42:23.772Z,82.70
2018-01-06T09:44:51.242Z,82.90
2018-01-06T09:47:18.773Z,82.60
2018-01-06T09:49:46.226Z,82.80
2018-01-06T09:52:13.688Z,82.30
2018-01-06T09:54:41.127Z,81.90
2018-01-06T09:57:08.572Z,80.80
2018-01-06T09:59:36.021Z,80.80
2018-01-06T10:02:03.526Z,80.00
2018-01-06T10:04:30.973Z,79.40
2018-01-06T10:06:58.427Z,77.90
2018-01-06T10:09:25.889Z,77.30
2018-01-06T10:11:53.343Z,75.50
2018-01-06T10:14:20.805Z,74.20
2018-01-06T10:16:48.264Z,71.90
2018-01-06T10:19:15.712Z,70.60
2018-01-06T10:21:43.172Z,63.60
2018-01-06T10:24:10.626Z,60.90
2018-01-06T10:26:38.056Z,58.50
2018-01-06T10:29:05.484Z,55.40
2018-01-06T10:31:32.997Z,54.30
2018-01-06T10:34:00.456Z,49.60
2018-01-06T10:36:28.118Z,45.80
2018-01-06T10:38:55.544Z,45.00
2018-01-06T10:41:22.982Z,45.20
2018-01-06T10:43:50.436Z,43.70
2018-01-06T10:46:18.662Z,36.50
2018-01-06T10:48:46.122Z,36.80
2018-01-06T10:51:13.588Z,36.40
2018-01-06T10:53:41.032Z,34.60
2018-01-06T10:56:08.497Z,33.60
2018-01-06T10:58:36.213Z,34.40
2018-01-06T11:01:09.133Z,33.40
2018-01-06T11:03:36.597Z,34.50
2018-01-06T11:06:04.025Z,37.90
2018-01-06T11:08:31.447Z,36.10
2018-01-06T11:10:58.892Z,36.10
2018-01-06T11:13:26.374Z,36.80
2018-01-06T11:15:53.997Z,38.60
2018-01-06T11:18:21.456Z,39.40
2018-01-06T11:20:48.916Z,41.80
2018-01-06T11:23:16.384Z,40.80
2018-01-06T11:25:43.852Z,39.90
2018-01-06T11:28:11.300Z,40.90
2018-01-06T11:30:38.772Z,40.60
2018-01-06T11:33:06.210Z,41.30
2018-01-06T11:35:33.663Z,42.20
2018-01-06T11:38:01.099Z,42.10
2018-01-06T11:40:28.564Z,41.10
2018-01-06T11:42:56.000Z,39.90
2018-01-06T11:45:23.441Z,39.30
2018-01-06T11:47:50.911Z,36.30
2018-01-06T11:50:18.377Z,35.90
2018-01-06T11:52:45.812Z,36.20
2018-01-06T11:55:13.505Z,39.10
2018-01-06T11:57:40.930Z,38.00
2018-01-06T12:00:08.388Z,37.00
2018-01-06T12:02:35.841Z,35.50
2018-01-06T12:05:04.074Z,33.00
2018-01-06T12:07:31.527Z,33.00
2018-01-06T12:09:58.980Z,33.20
2018-01-06T12:12:26.437Z,32.60
2018-01-06T12:14:53.901Z,31.60
2018-01-06T12:17:21.349Z,30.50
2018-01-06T12:19:48.788Z,30.00
2018-01-06T12:22:16.242Z,30.00
2018-01-06T12:24:43.668Z,29.80
2018-01-06T12:27:12.013Z,29.60
2018-01-06T12:29:39.456Z,29.00
2018-01-06T12:32:06.916Z,28.50
2018-01-06T12:34:34.374Z,28.60
2018-01-06T12:37:01.834Z,27.70
2018-01-06T12:39:29.317Z,27.60
2018-01-06T12:41:56.762Z,27.70
2018-01-06T12:44:24.200Z,26.60
2018-01-06T12:46:51.660Z,26.40
2018-01-06T12:49:19.100Z,25.60
2018-01-06T12:51:46.556Z,25.90
2018-01-06T12:54:14.024Z,24.30
2018-01-06T12:56:41.473Z,24.80
2018-01-06T12:59:08.921Z,24.10
2018-01-06T13:01:36.382Z,23.60
2018-01-06T13:04:03.834Z,23.30
2018-01-06T13:06:31.407Z,22.80
2018-01-06T13:08:58.836Z,21.60
2018-01-06T13:11:26.303Z,22.00
2018-01-06T13:13:53.742Z,23.30
2018-01-06T13:16:21.175Z,23.00
2018-01-06T13:18:49.404Z,24.90
2018-01-06T13:21:16.853Z,24.80
2018-01-06T13:23:44.310Z,23.40
2018-01-06T13:26:11.782Z,24.10
2018-01-06T13:28:39.219Z,24.60
2018-01-06T13:31:06.681Z,26.10
2018-01-06T13:33:34.110Z,27.40
2018-01-06T13:36:02.328Z,31.00
2018-01-06T13:38:29.782Z,30.90
2018-01-06T13:40:57.252Z,32.60
2018-01-06T13:43:24.991Z,34.50
2018-01-06T13:45:52.404Z,36.50
2018-01-06T13:48:20.637Z,40.00
2018-01-06T13:50:48.088Z,39.80
2018-01-06T13:53:15.564Z,41.90
2018-01-06T13:55:43.021Z,42.10
2018-01-06T13:58:10.482Z,43.30
2018-01-06T14:00:37.936Z,43.80
2018-01-06T14:03:05.372Z,43.80
2018-01-06T14:05:32.840Z,45.50
2018-01-06T14:08:00.296Z,46.70
2018-01-06T14:10:27.745Z,47.80
2018-01-06T14:12:55.195Z,48.10
2018-01-06T14:15:22.679Z,48.10
2018-01-06T14:17:50.132Z,48.80
2018-01-06T14:20:17.612Z,48.80
2018-01-06T14:22:45.061Z,49.30
2018-01-06T14:25:12.529Z,49.30
2018-01-06T14:27:39.968Z,49.80
2018-01-06T14:30:07.420Z,50.70
2018-01-06T14:32:34.882Z,51.90
2018-01-06T14:35:02.352Z,51.70
2018-01-06T14:37:29.918Z,51.80
2018-01-06T14:39:57.241Z,52.00
2018-01-06T14:42:24.704Z,52.40
2018-01-06T14:44:52.175Z,53.50
2018-01-06T14:47:19.632Z,53.40
2018-01-06T14:49:47.078Z,54.30
2018-01-06T14:52:14.559Z,54.40
2018-01-06T14:54:42.008Z,55.30
2018-01-06T14:57:09.478Z,55.10
2018-01-06T14:59:37.696Z,56.90
2018-01-06T15:02:05.163Z,56.10
2018-01-06T15:04:32.649Z,58.20
2018-01-06T15:07:00.088Z,60.00
2018-01-06T15:09:27.572Z,60.50
2018-01-06T15:11:55.028Z,61.20
2018-01-06T15:14:22.483Z,61.90
2018-01-06T15:16:49.948Z,62.30
2018-01-06T15:19:18.188Z,63.50
2018-01-06T15:21:45.658Z,63.50
2018-01-06T15:24:13.149Z,64.20
2018-01-06T15:26:41.369Z,65.70
2018-01-06T15:29:08.815Z,65.60
2018-01-06T15:31:36.284Z,65.70
2018-01-06T15:34:03.744Z,66.60
2018-01-06T15:36:31.208Z,66.80
2018-01-06T15:38:58.675Z,67.20
2018-01-06T15:41:26.132Z,67.50
2018-01-06T15:43:53.596Z,67.60
2018-01-06T15:46:21.047Z,68.20
2018-01-06T15:48:48.512Z,68.70
2018-01-06T15:51:15.969Z,69.20
2018-01-06T15:53:43.412Z,69.70
2018-01-06T15:56:10.861Z,70.60
2018-01-06T15:58:38.313Z,71.00
2018-01-06T16:01:05.776Z,71.30
2018-01-06T16:03:33.237Z,71.80
2018-01-06T16:06:00.723Z,72.00
2018-01-06T16:08:28.205Z,72.60
2018-01-06T16:10:55.675Z,72.60
2018-01-06T16:13:23.136Z,73.00
2018-01-06T16:15:50.593Z,73.40
2018-01-06T16:18:18.056Z,74.20
2018-01-06T16:20:45.519Z,74.30
2018-01-06T16:23:12.981Z,74.90
2018-01-06T16:25:40.544Z,75.50
2018-01-06T16:28:08.013Z,75.30
2018-01-06T16:30:35.474Z,75.80
2018-01-06T16:33:02.921Z,76.40
2018-01-06T16:35:30.376Z,76.50
2018-01-06T16:37:57.844Z,77.10
2018-01-06T16:40:25.318Z,77.80
2018-01-06T16:42:52.768Z,78.30
2018-01-06T16:45:20.293Z,78.70
2018-01-06T16:47:47.753Z,78.80
2018-01-06T16:50:15.201Z,79.00
2018-01-06T16:52:42.673Z,79.30
2018-01-06T16:55:10.109Z,79.20
2018-01-06T16:57:37.584Z,78.90
2018-01-06T17:00:05.075Z,79.00
2018-01-06T17:02:32.509Z,79.80
2018-01-06T17:04:59.980Z,78.70
2018-01-06T17:07:27.421Z,78.40
2018-01-06T17:09:54.950Z,78.50
2018-01-06T17:12:22.368Z,78.60
2018-01-06T17:14:49.816Z,78.70
2018-01-06T17:17:17.258Z,78.60
2018-01-06T17:19:44.699Z,78.60
2018-01-06T17:22:12.188Z,78.90
2018-01-06T17:24:39.634Z,78.60
2018-01-06T17:27:07.077Z,78.60
2018-01-06T17:29:34.608Z,78.50
2018-01-06T17:32:01.996Z,78.60
2018-01-06T17:34:29.444Z,78.40
2018-01-06T17:36:56.906Z,78.60
2018-01-06T17:39:24.347Z,78.80
2018-01-06T17:41:51.820Z,78.80
2018-01-06T17:44:19.266Z,78.90
2018-01-06T17:46:46.753Z,79.10
2018-01-06T17:49:14.232Z,79.00
2018-01-06T17:51:41.648Z,79.50
2018-01-06T17:54:09.085Z,79.90
2018-01-06T17:56:36.536Z,79.70
2018-01-06T17:59:04.007Z,80.20
2018-01-06T18:01:31.466Z,80.00
2018-01-06T18:03:58.908Z,80.00
2018-01-06T18:06:26.352Z,80.40
2018-01-06T18:08:53.836Z,81.20
2018-01-06T18:11:21.270Z,80.80
2018-01-06T18:13:48.704Z,81.60
2018-01-06T18:16:16.180Z,80.90
2018-01-06T18:18:43.612Z,81.20
2018-01-06T18:21:11.068Z,81.20
2018-01-06T18:23:39.299Z,81.80
2018-01-06T18:26:06.751Z,81.70
2018-01-06T18:28:34.196Z,82.30
2018-01-06T18:31:01.636Z,82.50
2018-01-06T18:33:29.081Z,82.50
2018-01-06T18:35:57.312Z,82.80
2018-01-06T18:38:24.773Z,82.70
2018-01-06T18:40:52.236Z,82.60
2018-01-06T18:43:19.715Z,82.70
2018-01-06T18:45:47.158Z,83.10
2018-01-06T18:48:14.609Z,83.10
2018-01-06T18:50:42.085Z,82.60
2018-01-06T18:53:09.541Z,82.60
2018-01-06T18:55:37.029Z,82.80
2018-01-06T18:58:04.468Z,83.80
2018-01-06T19:00:31.920Z,82.70
2018-01-06T19:02:59.364Z,82.80
2018-01-06T19:05:26.800Z,83.30
2018-01-06T19:07:54.282Z,83.60
2018-01-06T19:10:21.721Z,83.70
2018-01-06T19:12:49.234Z,84.10
2018-01-06T19:15:16.631Z,83.60
2018-01-06T19:17:44.170Z,84.10
2018-01-06T19:20:11.634Z,84.70
2018-01-06T19:22:39.088Z,84.70
2018-01-06T19:25:06.604Z,84.60
2018-01-06T19:27:34.832Z,85.00
2018-01-06T19:30:02.304Z,84.90
2018-01-06T19:32:29.743Z,84.90
2018-01-06T19:34:57.196Z,85.30
2018-01-06T19:37:24.638Z,86.70
2018-01-06T19:39:52.191Z,86.20
2018-01-06T19:42:19.648Z,86.50
2018-01-06T19:44:47.107Z,86.70
2018-01-06T19:47:14.580Z,86.70
2018-01-06T19:49:42.008Z,87.00
2018-01-06T19:52:09.473Z,86.90
2018-01-06T19:54:36.927Z,86.90
2018-01-06T19:57:04.377Z,87.20
2018-01-06T19:59:31.841Z,86.80
2018-01-06T20:01:59.291Z,86.90
2018-01-06T20:04:26.775Z,87.40
2018-01-06T20:06:54.196Z,87.70
2018-01-06T20:09:21.636Z,87.60
2018-01-06T20:11:49.084Z,87.60
2018-01-06T20:14:16.520Z,87.70
2018-01-06T20:16:43.974Z,87.60
2018-01-06T20:19:11.421Z,87.90
2018-01-06T20:21:38.888Z,87.40
2018-01-06T20:24:06.392Z,87.00
2018-01-06T20:26:34.604Z,87.50
2018-01-06T20:29:02.062Z,87.40
2018-01-06T20:31:29.526Z,87.80
2018-01-06T20:33:56.964Z,87.80
2018-01-06T20:36:24.408Z,87.50
2018-01-06T20:38:51.872Z,87.40
2018-01-06T20:41:19.310Z,87.20
2018-01-06T20:43:46.762Z,87.60
2018-01-06T20:46:15.044Z,87.40
2018-01-06T20:48:42.493Z,87.30
2018-01-06T20:51:10.700Z,87.50
2018-01-06T20:53:38.153Z,87.40
2018-01-06T20:56:05.614Z,87.20
2018-01-06T20:58:33.056Z,87.30
2018-01-06T21:01:00.516Z,87.20
2018-01-06T21:03:27.970Z,87.40
2018-01-06T21:05:55.412Z,87.30
2018-01-06T21:08:23.704Z,87.60
2018-01-06T21:10:51.144Z,87.50
2018-01-06T21:13:19.372Z,88.10
2018-01-06T21:15:46.851Z,88.00
2018-01-06T21:18:14.313Z,87.60
2018-01-06T21:20:41.768Z,87.90
2018-01-06T21:23:09.208Z,88.20
2018-01-06T21:25:36.662Z,88.40
2018-01-06T21:28:04.104Z,88.70
2018-01-06T21:30:31.817Z,88.40
2018-01-06T21:32:59.242Z,88.10
2018-01-06T21:35:26.696Z,88.00
2018-01-06T21:37:54.136Z,87.90
2018-01-06T21:40:21.576Z,87.60
2018-01-06T21:42:49.017Z,87.60
2018-01-06T21:45:16.464Z,87.30
2018-01-06T21:47:43.932Z,87.40
2018-01-06T21:50:11.368Z,87.90
2018-01-06T21:52:38.844Z,88.30
2018-01-06T21:55:06.300Z,88.50
2018-01-06T21:57:33.754Z,88.60
2018-01-06T22:00:01.212Z,88.80
2018-01-06T22:02:28.653Z,88.70
2018-01-06T22:04:56.143Z,88.90
2018-01-06T22:07:23.565Z,89.00
2018-01-06T22:09:51.012Z,89.20
2018-01-06T22:12:18.468Z,90.10
2018-01-06T22:14:45.972Z,90.00
2018-01-06T22:17:13.428Z,90.20
2018-01-06T22:19:40.870Z,90.20
2018-01-06T22:22:09.096Z,90.20
2018-01-06T22:24:36.578Z,90.20
2018-01-06T22:27:04.033Z,90.20
2018-01-06T22:29:31.467Z,90.40
2018-01-06T22:31:58.932Z,90.40
2018-01-06T22:34:26.407Z,90.30
2018-01-06T22:36:59.098Z,90.30
2018-01-06T22:39:26.577Z,90.30
2018-01-06T22:41:54.783Z,90.00
2018-01-06T22:44:22.256Z,90.00
2018-01-06T22:46:49.717Z,89.70
2018-01-06T22:49:17.151Z,89.70
2018-01-06T22:51:44.595Z,89.30
2018-01-06T22:54:12.040Z,89.80
2018-01-06T22:56:39.486Z,88.80
2018-01-06T22:59:06.974Z,88.00
2018-01-06T23:01:34.408Z,88.20
2018-01-06T23:04:01.848Z,88.20
2018-01-06T23:06:29.309Z,88.50
2018-01-06T23:08:56.764Z,88.60
2018-01-06T23:11:24.207Z,88.10
2018-01-06T23:13:51.693Z,88.20
2018-01-06T23:16:19.132Z,88.20
2018-01-06T23:18:46.584Z,87.80
2018-01-06T23:21:14.098Z,87.60
2018-01-06T23:23:41.553Z,87.20
2018-01-06T23:26:09.008Z,87.00
2018-01-06T23:28:36.436Z,85.70
2018-01-06T23:31:03.885Z,85.90
2018-01-06T23:33:32.107Z,85.30
2018-01-06T23:35:59.560Z,85.30
2018-01-06T23:38:27.012Z,85.90
2018-01-06T23:40:54.453Z,85.80
2018-01-06T23:43:21.934Z,86.70
2018-01-06T23:45:49.382Z,86.10
2018-01-06T23:48:16.833Z,86.40
2018-01-06T23:50:44.277Z,86.00
2018-01-06T23:53:11.747Z,85.80
2018-01-06T23:55:39.197Z,85.80
2018-01-06T23:58:06.661Z,85.10
